Saint Brieux, Canada
Current Conditions -  °F | °C
As of 2:00 PM on Wednesday 26 Nov 2014 (Local Time) from CYPA Reporting Station
Few Clouds Few Clouds  
Wind Chill: -17°   Ceiling: Unl
Heat Index: -6°   Visibility: 15mi
Dew Point: -11°   Wind: 5mph
Humidity: 77%   Direction: 60°ENE
Pressure: 30.42"   Gusts: NA
Location:  52.63°N, 104.88°W
Report Text: CYPA 262000Z 06004KT 15SM FEW250 M21/M24 A3042 RMK CI1 CI TR SLP358
Loading
Personal Weather Stations






























Interactive Weather Map New forecast layout! Learn more

10-Day Weather Forecast

Advertisements
Track Severe Weather on mobile